sensor_id;sensor_type;location;lat;lon;timestamp;temperature;humidity
22436;DHT22;11385;50.822;4.324;2022-11-15T00:02:20;12.30;99.90
22436;DHT22;11385;50.822;4.324;2022-11-15T00:04:47;12.20;99.90
22436;DHT22;11385;50.822;4.324;2022-11-15T00:07:14;12.30;99.90
22436;DHT22;11385;50.822;4.324;2022-11-15T00:09:40;12.20;99.90
22436;DHT22;11385;50.822;4.324;2022-11-15T00:12:07;12.30;99.90
22436;DHT22;11385;50.822;4.324;2022-11-15T00:14:33;12.20;99.90
22436;DHT22;11385;50.822;4.324;2022-11-15T00:17:00;12.20;99.90
22436;DHT22;11385;50.822;4.324;2022-11-15T00:19:27;12.10;99.90
22436;DHT22;11385;50.822;4.324;2022-11-15T00:21:53;12.10;99.90
22436;DHT22;11385;50.822;4.324;2022-11-15T00:24:20;12.20;99.90
22436;DHT22;11385;50.822;4.324;2022-11-15T00:26:46;12.10;99.90
22436;DHT22;11385;50.822;4.324;2022-11-15T00:29:13;12.20;99.90
22436;DHT22;11385;50.822;4.324;2022-11-15T00:31:40;12.30;99.90
22436;DHT22;11385;50.822;4.324;2022-11-15T00:34:06;12.40;99.90
22436;DHT22;11385;50.822;4.324;2022-11-15T00:36:34;12.20;99.90
22436;DHT22;11385;50.822;4.324;2022-11-15T00:39:00;12.30;99.90
22436;DHT22;11385;50.822;4.324;2022-11-15T00:41:27;12.30;99.90
22436;DHT22;11385;50.822;4.324;2022-11-15T00:43:53;12.50;99.90
22436;DHT22;11385;50.822;4.324;2022-11-15T00:46:20;12.30;99.90
22436;DHT22;11385;50.822;4.324;2022-11-15T00:48:47;12.50;99.90
22436;DHT22;11385;50.822;4.324;2022-11-15T00:51:13;12.70;99.90
22436;DHT22;11385;50.822;4.324;2022-11-15T00:53:40;12.60;99.90
22436;DHT22;11385;50.822;4.324;2022-11-15T00:56:07;12.60;99.90
22436;DHT22;11385;50.822;4.324;2022-11-15T00:58:33;12.70;99.90
22436;DHT22;11385;50.822;4.324;2022-11-15T01:01:09;12.60;99.90
22436;DHT22;11385;50.822;4.324;2022-11-15T01:03:37;12.70;99.90
22436;DHT22;11385;50.822;4.324;2022-11-15T01:06:05;12.70;99.90
22436;DHT22;11385;50.822;4.324;2022-11-15T01:08:32;12.60;99.90
22436;DHT22;11385;50.822;4.324;2022-11-15T01:11:04;12.70;99.90
22436;DHT22;11385;50.822;4.324;2022-11-15T01:13:33;12.70;99.90
22436;DHT22;11385;50.822;4.324;2022-11-15T01:16:12;12.60;99.90
22436;DHT22;11385;50.822;4.324;2022-11-15T01:18:39;12.60;99.90
22436;DHT22;11385;50.822;4.324;2022-11-15T01:21:14;12.60;99.90
22436;DHT22;11385;50.822;4.324;2022-11-15T01:23:38;12.60;99.90
22436;DHT22;11385;50.822;4.324;2022-11-15T01:26:07;12.60;99.90
22436;DHT22;11385;50.822;4.324;2022-11-15T01:28:35;12.70;99.90
22436;DHT22;11385;50.822;4.324;2022-11-15T01:31:05;12.60;99.90
22436;DHT22;11385;50.822;4.324;2022-11-15T01:33:34;12.50;99.90
22436;DHT22;11385;50.822;4.324;2022-11-15T01:36:07;12.60;99.90
22436;DHT22;11385;50.822;4.324;2022-11-15T01:38:34;12.60;99.90
22436;DHT22;11385;50.822;4.324;2022-11-15T01:41:01;12.60;99.90
22436;DHT22;11385;50.822;4.324;2022-11-15T01:43:32;12.40;99.90
22436;DHT22;11385;50.822;4.324;2022-11-15T01:46:04;12.50;99.90
22436;DHT22;11385;50.822;4.324;2022-11-15T01:48:33;12.50;99.90
22436;DHT22;11385;50.822;4.324;2022-11-15T01:51:01;12.50;99.90
22436;DHT22;11385;50.822;4.324;2022-11-15T01:53:30;12.50;99.90
22436;DHT22;11385;50.822;4.324;2022-11-15T01:55:59;12.50;99.90
22436;DHT22;11385;50.822;4.324;2022-11-15T01:58:27;12.60;99.90
22436;DHT22;11385;50.822;4.324;2022-11-15T02:00:54;12.60;99.90
22436;DHT22;11385;50.822;4.324;2022-11-15T02:03:23;12.70;99.90
22436;DHT22;11385;50.822;4.324;2022-11-15T02:05:52;12.60;99.90
22436;DHT22;11385;50.822;4.324;2022-11-15T02:08:19;12.60;99.90
22436;DHT22;11385;50.822;4.324;2022-11-15T02:10:46;12.50;99.90
22436;DHT22;11385;50.822;4.324;2022-11-15T02:13:16;12.40;99.90
22436;DHT22;11385;50.822;4.324;2022-11-15T02:18:34;12.30;99.90
22436;DHT22;11385;50.822;4.324;2022-11-15T02:21:07;12.30;99.90
22436;DHT22;11385;50.822;4.324;2022-11-15T02:23:51;12.40;99.90
22436;DHT22;11385;50.822;4.324;2022-11-15T02:26:26;12.20;99.90
22436;DHT22;11385;50.822;4.324;2022-11-15T02:29:11;12.20;99.90
22436;DHT22;11385;50.822;4.324;2022-11-15T02:31:45;12.30;99.90
22436;DHT22;11385;50.822;4.324;2022-11-15T02:37:15;12.20;99.90
22436;DHT22;11385;50.822;4.324;2022-11-15T02:39:49;12.20;99.90
22436;DHT22;11385;50.822;4.324;2022-11-15T02:44:57;12.10;99.90
22436;DHT22;11385;50.822;4.324;2022-11-15T02:47:27;12.20;99.90
22436;DHT22;11385;50.822;4.324;2022-11-15T02:49:59;12.30;99.90
22436;DHT22;11385;50.822;4.324;2022-11-15T02:52:26;12.20;99.90
22436;DHT22;11385;50.822;4.324;2022-11-15T02:54:56;12.20;99.90
22436;DHT22;11385;50.822;4.324;2022-11-15T02:57:51;12.20;99.90
22436;DHT22;11385;50.822;4.324;2022-11-15T03:00:16;12.20;99.90
22436;DHT22;11385;50.822;4.324;2022-11-15T03:02:56;12.20;99.90
22436;DHT22;11385;50.822;4.324;2022-11-15T03:05:30;12.10;99.90
22436;DHT22;11385;50.822;4.324;2022-11-15T03:08:30;12.10;99.90
22436;DHT22;11385;50.822;4.324;2022-11-15T03:10:46;12.20;99.90
22436;DHT22;11385;50.822;4.324;2022-11-15T03:13:21;12.20;99.90
22436;DHT22;11385;50.822;4.324;2022-11-15T03:16:02;12.20;99.90
22436;DHT22;11385;50.822;4.324;2022-11-15T03:18:34;12.10;99.90
22436;DHT22;11385;50.822;4.324;2022-11-15T03:21:05;12.00;99.90
22436;DHT22;11385;50.822;4.324;2022-11-15T03:23:33;12.00;99.90
22436;DHT22;11385;50.822;4.324;2022-11-15T03:26:01;11.90;99.90
22436;DHT22;11385;50.822;4.324;2022-11-15T03:28:32;11.90;99.90
22436;DHT22;11385;50.822;4.324;2022-11-15T03:31:01;11.90;99.90
22436;DHT22;11385;50.822;4.324;2022-11-15T03:33:31;11.90;99.90
22436;DHT22;11385;50.822;4.324;2022-11-15T03:35:58;11.90;99.90
22436;DHT22;11385;50.822;4.324;2022-11-15T03:38:26;11.90;99.90
22436;DHT22;11385;50.822;4.324;2022-11-15T03:40:58;11.90;99.90
22436;DHT22;11385;50.822;4.324;2022-11-15T03:43:49;11.90;99.90
22436;DHT22;11385;50.822;4.324;2022-11-15T03:46:23;11.80;99.90
22436;DHT22;11385;50.822;4.324;2022-11-15T03:48:53;11.80;99.90
22436;DHT22;11385;50.822;4.324;2022-11-15T03:51:21;11.90;99.90
22436;DHT22;11385;50.822;4.324;2022-11-15T03:53:47;11.80;99.90
22436;DHT22;11385;50.822;4.324;2022-11-15T03:56:14;11.80;99.90
22436;DHT22;11385;50.822;4.324;2022-11-15T03:58:41;11.80;99.90
22436;DHT22;11385;50.822;4.324;2022-11-15T04:01:08;11.70;99.90
22436;DHT22;11385;50.822;4.324;2022-11-15T04:03:34;11.90;99.90
22436;DHT22;11385;50.822;4.324;2022-11-15T04:06:01;11.90;99.90
22436;DHT22;11385;50.822;4.324;2022-11-15T04:08:28;11.90;99.90
22436;DHT22;11385;50.822;4.324;2022-11-15T04:10:54;12.00;99.90
22436;DHT22;11385;50.822;4.324;2022-11-15T04:13:21;12.00;99.90
22436;DHT22;11385;50.822;4.324;2022-11-15T04:15:47;11.90;99.90
22436;DHT22;11385;50.822;4.324;2022-11-15T04:18:14;12.00;99.90
22436;DHT22;11385;50.822;4.324;2022-11-15T04:20:41;11.90;99.90
22436;DHT22;11385;50.822;4.324;2022-11-15T04:23:19;11.90;99.90
22436;DHT22;11385;50.822;4.324;2022-11-15T04:25:53;11.80;99.90
22436;DHT22;11385;50.822;4.324;2022-11-15T04:28:21;11.90;99.90
22436;DHT22;11385;50.822;4.324;2022-11-15T04:30:48;11.80;99.90
22436;DHT22;11385;50.822;4.324;2022-11-15T04:33:15;11.90;99.90
22436;DHT22;11385;50.822;4.324;2022-11-15T04:35:42;12.00;99.90
22436;DHT22;11385;50.822;4.324;2022-11-15T04:38:10;11.90;99.90
22436;DHT22;11385;50.822;4.324;2022-11-15T04:40:37;11.80;99.90
22436;DHT22;11385;50.822;4.324;2022-11-15T04:43:04;11.70;99.90
22436;DHT22;11385;50.822;4.324;2022-11-15T04:45:31;11.80;99.90
22436;DHT22;11385;50.822;4.324;2022-11-15T04:47:58;11.70;99.90
22436;DHT22;11385;50.822;4.324;2022-11-15T04:50:25;11.80;99.90
22436;DHT22;11385;50.822;4.324;2022-11-15T04:52:53;11.70;99.90
22436;DHT22;11385;50.822;4.324;2022-11-15T04:55:20;11.60;99.90
22436;DHT22;11385;50.822;4.324;2022-11-15T04:57:47;11.60;99.90
22436;DHT22;11385;50.822;4.324;2022-11-15T05:00:16;11.60;99.90
22436;DHT22;11385;50.822;4.324;2022-11-15T05:02:44;11.50;99.90
22436;DHT22;11385;50.822;4.324;2022-11-15T05:05:16;11.50;99.90
22436;DHT22;11385;50.822;4.324;2022-11-15T05:07:43;11.40;99.90
22436;DHT22;11385;50.822;4.324;2022-11-15T05:10:09;11.40;99.90
22436;DHT22;11385;50.822;4.324;2022-11-15T05:12:36;11.30;99.90
22436;DHT22;11385;50.822;4.324;2022-11-15T05:15:03;11.30;99.90
22436;DHT22;11385;50.822;4.324;2022-11-15T05:17:30;11.20;99.90
22436;DHT22;11385;50.822;4.324;2022-11-15T05:19:57;11.00;99.90
22436;DHT22;11385;50.822;4.324;2022-11-15T05:22:24;11.00;99.90
22436;DHT22;11385;50.822;4.324;2022-11-15T05:24:51;11.00;99.90
22436;DHT22;11385;50.822;4.324;2022-11-15T05:27:17;10.90;99.90
22436;DHT22;11385;50.822;4.324;2022-11-15T05:29:44;10.90;99.90
22436;DHT22;11385;50.822;4.324;2022-11-15T05:32:12;10.90;99.90
22436;DHT22;11385;50.822;4.324;2022-11-15T05:34:39;11.00;99.90
22436;DHT22;11385;50.822;4.324;2022-11-15T05:37:05;10.90;99.90
22436;DHT22;11385;50.822;4.324;2022-11-15T05:39:32;10.90;99.90
22436;DHT22;11385;50.822;4.324;2022-11-15T05:42:06;10.90;99.90
22436;DHT22;11385;50.822;4.324;2022-11-15T05:44:34;10.90;99.90
22436;DHT22;11385;50.822;4.324;2022-11-15T05:47:04;10.90;99.90
22436;DHT22;11385;50.822;4.324;2022-11-15T05:49:34;10.80;99.90
22436;DHT22;11385;50.822;4.324;2022-11-15T05:52:04;10.80;99.90
22436;DHT22;11385;50.822;4.324;2022-11-15T05:54:32;10.80;99.90
22436;DHT22;11385;50.822;4.324;2022-11-15T05:56:59;10.90;99.90
22436;DHT22;11385;50.822;4.324;2022-11-15T05:59:29;11.00;99.90
22436;DHT22;11385;50.822;4.324;2022-11-15T06:01:56;11.00;99.90
22436;DHT22;11385;50.822;4.324;2022-11-15T06:04:23;11.00;99.90
22436;DHT22;11385;50.822;4.324;2022-11-15T06:06:50;10.90;99.90
22436;DHT22;11385;50.822;4.324;2022-11-15T06:09:16;10.80;99.90
22436;DHT22;11385;50.822;4.324;2022-11-15T06:11:43;10.70;99.90
22436;DHT22;11385;50.822;4.324;2022-11-15T06:14:10;10.60;99.90
22436;DHT22;11385;50.822;4.324;2022-11-15T06:16:36;10.50;99.90
22436;DHT22;11385;50.822;4.324;2022-11-15T06:19:03;10.40;99.90
22436;DHT22;11385;50.822;4.324;2022-11-15T06:21:29;10.30;99.90
22436;DHT22;11385;50.822;4.324;2022-11-15T06:23:56;10.40;99.90
22436;DHT22;11385;50.822;4.324;2022-11-15T06:26:23;10.30;99.90
22436;DHT22;11385;50.822;4.324;2022-11-15T06:28:49;10.30;99.90
22436;DHT22;11385;50.822;4.324;2022-11-15T06:31:16;10.30;99.90
22436;DHT22;11385;50.822;4.324;2022-11-15T06:33:42;10.30;99.90
22436;DHT22;11385;50.822;4.324;2022-11-15T06:36:12;10.20;99.90
22436;DHT22;11385;50.822;4.324;2022-11-15T06:38:41;10.20;99.90
22436;DHT22;11385;50.822;4.324;2022-11-15T06:41:09;10.20;99.90
22436;DHT22;11385;50.822;4.324;2022-11-15T06:43:37;10.20;99.90
22436;DHT22;11385;50.822;4.324;2022-11-15T06:46:05;10.20;99.90
22436;DHT22;11385;50.822;4.324;2022-11-15T06:48:33;10.10;99.90
22436;DHT22;11385;50.822;4.324;2022-11-15T06:51:01;10.10;99.90
22436;DHT22;11385;50.822;4.324;2022-11-15T06:53:29;10.10;99.90
22436;DHT22;11385;50.822;4.324;2022-11-15T06:55:59;10.20;99.90
22436;DHT22;11385;50.822;4.324;2022-11-15T06:58:26;10.10;99.90
22436;DHT22;11385;50.822;4.324;2022-11-15T07:00:53;10.00;99.90
22436;DHT22;11385;50.822;4.324;2022-11-15T07:03:21;10.10;99.90
22436;DHT22;11385;50.822;4.324;2022-11-15T07:05:53;10.00;99.90
22436;DHT22;11385;50.822;4.324;2022-11-15T07:08:21;10.00;99.90
22436;DHT22;11385;50.822;4.324;2022-11-15T07:10:48;10.00;99.90
22436;DHT22;11385;50.822;4.324;2022-11-15T07:13:15;10.00;99.90
22436;DHT22;11385;50.822;4.324;2022-11-15T07:15:42;10.00;99.90
22436;DHT22;11385;50.822;4.324;2022-11-15T07:18:08;10.00;99.90
22436;DHT22;11385;50.822;4.324;2022-11-15T07:20:35;10.10;99.90
22436;DHT22;11385;50.822;4.324;2022-11-15T07:23:04;10.10;99.90
22436;DHT22;11385;50.822;4.324;2022-11-15T07:25:31;10.10;99.90
22436;DHT22;11385;50.822;4.324;2022-11-15T07:27:58;10.10;99.90
22436;DHT22;11385;50.822;4.324;2022-11-15T07:30:26;10.20;99.90
22436;DHT22;11385;50.822;4.324;2022-11-15T07:32:56;10.10;99.90
22436;DHT22;11385;50.822;4.324;2022-11-15T07:35:24;10.10;99.90
22436;DHT22;11385;50.822;4.324;2022-11-15T07:37:54;10.10;99.90
22436;DHT22;11385;50.822;4.324;2022-11-15T07:40:21;10.10;99.90
22436;DHT22;11385;50.822;4.324;2022-11-15T07:42:48;10.10;99.90
22436;DHT22;11385;50.822;4.324;2022-11-15T07:45:20;10.20;99.90
22436;DHT22;11385;50.822;4.324;2022-11-15T07:47:47;10.10;99.90
22436;DHT22;11385;50.822;4.324;2022-11-15T07:50:15;10.30;99.90
22436;DHT22;11385;50.822;4.324;2022-11-15T07:52:42;10.20;99.90
22436;DHT22;11385;50.822;4.324;2022-11-15T07:55:08;10.20;99.90
22436;DHT22;11385;50.822;4.324;2022-11-15T07:57:35;10.20;99.90
22436;DHT22;11385;50.822;4.324;2022-11-15T08:00:04;10.30;99.90
22436;DHT22;11385;50.822;4.324;2022-11-15T08:02:31;10.30;99.90
22436;DHT22;11385;50.822;4.324;2022-11-15T08:04:58;10.30;99.90
22436;DHT22;11385;50.822;4.324;2022-11-15T08:07:27;10.20;99.90
22436;DHT22;11385;50.822;4.324;2022-11-15T08:09:53;10.10;99.90
22436;DHT22;11385;50.822;4.324;2022-11-15T08:12:22;10.00;99.90
22436;DHT22;11385;50.822;4.324;2022-11-15T08:14:49;10.00;99.90
22436;DHT22;11385;50.822;4.324;2022-11-15T08:17:16;10.00;99.90
22436;DHT22;11385;50.822;4.324;2022-11-15T08:19:42;10.10;99.90
22436;DHT22;11385;50.822;4.324;2022-11-15T08:22:09;10.10;99.90
22436;DHT22;11385;50.822;4.324;2022-11-15T08:24:35;10.10;99.90
22436;DHT22;11385;50.822;4.324;2022-11-15T08:27:02;10.20;99.90
22436;DHT22;11385;50.822;4.324;2022-11-15T08:29:29;10.20;99.90
22436;DHT22;11385;50.822;4.324;2022-11-15T08:31:55;10.10;99.90
22436;DHT22;11385;50.822;4.324;2022-11-15T08:34:22;10.20;99.90
22436;DHT22;11385;50.822;4.324;2022-11-15T08:36:49;10.30;99.90
22436;DHT22;11385;50.822;4.324;2022-11-15T08:39:15;10.10;99.90
22436;DHT22;11385;50.822;4.324;2022-11-15T08:41:42;10.20;99.90
22436;DHT22;11385;50.822;4.324;2022-11-15T08:44:08;10.30;99.90
22436;DHT22;11385;50.822;4.324;2022-11-15T08:46:35;10.30;99.90
22436;DHT22;11385;50.822;4.324;2022-11-15T08:49:02;10.30;99.90
22436;DHT22;11385;50.822;4.324;2022-11-15T08:51:28;10.30;99.90
22436;DHT22;11385;50.822;4.324;2022-11-15T08:53:55;10.40;99.90
22436;DHT22;11385;50.822;4.324;2022-11-15T08:56:22;10.40;99.90
22436;DHT22;11385;50.822;4.324;2022-11-15T08:58:48;10.60;99.90
22436;DHT22;11385;50.822;4.324;2022-11-15T09:01:17;10.70;99.90
22436;DHT22;11385;50.822;4.324;2022-11-15T09:03:45;10.70;99.90
22436;DHT22;11385;50.822;4.324;2022-11-15T09:06:12;10.80;99.90
22436;DHT22;11385;50.822;4.324;2022-11-15T09:08:39;10.80;99.90
22436;DHT22;11385;50.822;4.324;2022-11-15T09:11:07;10.70;99.90
22436;DHT22;11385;50.822;4.324;2022-11-15T09:13:40;10.80;99.90
22436;DHT22;11385;50.822;4.324;2022-11-15T09:16:07;10.90;99.90
22436;DHT22;11385;50.822;4.324;2022-11-15T09:18:34;10.80;99.90
22436;DHT22;11385;50.822;4.324;2022-11-15T09:21:01;10.80;99.90
22436;DHT22;11385;50.822;4.324;2022-11-15T09:23:29;10.70;99.90
22436;DHT22;11385;50.822;4.324;2022-11-15T09:26:00;10.80;99.90
22436;DHT22;11385;50.822;4.324;2022-11-15T09:28:28;10.90;99.90
22436;DHT22;11385;50.822;4.324;2022-11-15T09:30:59;10.80;99.90
22436;DHT22;11385;50.822;4.324;2022-11-15T09:33:26;10.90;99.90
22436;DHT22;11385;50.822;4.324;2022-11-15T09:35:53;11.00;99.90
22436;DHT22;11385;50.822;4.324;2022-11-15T09:38:20;11.10;99.90
22436;DHT22;11385;50.822;4.324;2022-11-15T09:40:51;11.20;99.90
22436;DHT22;11385;50.822;4.324;2022-11-15T09:43:28;11.20;99.90
22436;DHT22;11385;50.822;4.324;2022-11-15T09:48:51;11.40;99.90
22436;DHT22;11385;50.822;4.324;2022-11-15T09:51:52;11.50;99.90
22436;DHT22;11385;50.822;4.324;2022-11-15T09:54:18;11.50;99.90
22436;DHT22;11385;50.822;4.324;2022-11-15T09:56:44;11.40;99.90
22436;DHT22;11385;50.822;4.324;2022-11-15T09:59:19;11.40;99.90
22436;DHT22;11385;50.822;4.324;2022-11-15T10:02:58;11.50;99.90
22436;DHT22;11385;50.822;4.324;2022-11-15T10:04:36;11.60;99.90
22436;DHT22;11385;50.822;4.324;2022-11-15T10:07:13;11.70;99.90
22436;DHT22;11385;50.822;4.324;2022-11-15T10:09:44;11.80;99.90
22436;DHT22;11385;50.822;4.324;2022-11-15T10:12:13;12.00;99.90
22436;DHT22;11385;50.822;4.324;2022-11-15T10:14:40;11.90;99.90
22436;DHT22;11385;50.822;4.324;2022-11-15T10:17:32;11.90;99.90
22436;DHT22;11385;50.822;4.324;2022-11-15T10:20:17;11.80;99.90
22436;DHT22;11385;50.822;4.324;2022-11-15T10:22:50;12.00;99.90
22436;DHT22;11385;50.822;4.324;2022-11-15T10:25:22;12.10;99.90
22436;DHT22;11385;50.822;4.324;2022-11-15T10:27:53;12.20;99.90
22436;DHT22;11385;50.822;4.324;2022-11-15T10:30:20;12.20;99.90
22436;DHT22;11385;50.822;4.324;2022-11-15T10:32:48;12.20;99.90
22436;DHT22;11385;50.822;4.324;2022-11-15T10:35:27;12.10;99.90
22436;DHT22;11385;50.822;4.324;2022-11-15T10:38:05;12.10;99.90
22436;DHT22;11385;50.822;4.324;2022-11-15T10:40:32;12.10;99.90
22436;DHT22;11385;50.822;4.324;2022-11-15T10:43:18;12.30;99.90
22436;DHT22;11385;50.822;4.324;2022-11-15T10:45:45;12.40;99.90
22436;DHT22;11385;50.822;4.324;2022-11-15T10:48:21;12.50;99.90
22436;DHT22;11385;50.822;4.324;2022-11-15T10:50:50;12.50;99.90
22436;DHT22;11385;50.822;4.324;2022-11-15T10:53:30;12.60;99.90
22436;DHT22;11385;50.822;4.324;2022-11-15T10:56:00;12.70;99.90
22436;DHT22;11385;50.822;4.324;2022-11-15T10:58:32;12.80;99.90
22436;DHT22;11385;50.822;4.324;2022-11-15T11:01:10;12.70;99.90
22436;DHT22;11385;50.822;4.324;2022-11-15T11:03:38;12.60;99.90
22436;DHT22;11385;50.822;4.324;2022-11-15T11:06:11;12.60;99.90
22436;DHT22;11385;50.822;4.324;2022-11-15T11:08:39;12.50;99.90
22436;DHT22;11385;50.822;4.324;2022-11-15T11:11:06;12.50;99.90
22436;DHT22;11385;50.822;4.324;2022-11-15T11:13:38;12.60;99.90
22436;DHT22;11385;50.822;4.324;2022-11-15T11:16:32;12.80;99.90
22436;DHT22;11385;50.822;4.324;2022-11-15T11:19:04;12.90;99.90
22436;DHT22;11385;50.822;4.324;2022-11-15T11:21:38;12.90;99.90
22436;DHT22;11385;50.822;4.324;2022-11-15T11:24:08;13.10;99.90
22436;DHT22;11385;50.822;4.324;2022-11-15T11:27:06;13.10;99.90
22436;DHT22;11385;50.822;4.324;2022-11-15T11:29:50;13.30;99.90
22436;DHT22;11385;50.822;4.324;2022-11-15T11:32:30;13.40;99.90
22436;DHT22;11385;50.822;4.324;2022-11-15T11:35:06;13.40;99.90
22436;DHT22;11385;50.822;4.324;2022-11-15T11:37:39;13.40;99.90
22436;DHT22;11385;50.822;4.324;2022-11-15T11:40:21;13.50;99.90
22436;DHT22;11385;50.822;4.324;2022-11-15T11:42:57;13.40;99.90
22436;DHT22;11385;50.822;4.324;2022-11-15T11:48:43;13.50;99.90
22436;DHT22;11385;50.822;4.324;2022-11-15T11:51:28;13.50;99.90
22436;DHT22;11385;50.822;4.324;2022-11-15T11:54:14;13.40;99.90
22436;DHT22;11385;50.822;4.324;2022-11-15T11:56:44;13.40;99.90
22436;DHT22;11385;50.822;4.324;2022-11-15T11:59:28;13.40;99.90
22436;DHT22;11385;50.822;4.324;2022-11-15T12:01:54;13.50;99.90
22436;DHT22;11385;50.822;4.324;2022-11-15T12:04:27;13.40;99.90
22436;DHT22;11385;50.822;4.324;2022-11-15T12:09:38;13.70;99.90
22436;DHT22;11385;50.822;4.324;2022-11-15T12:14:46;13.60;99.90
22436;DHT22;11385;50.822;4.324;2022-11-15T12:17:17;13.50;99.90
22436;DHT22;11385;50.822;4.324;2022-11-15T12:19:45;13.60;99.90
22436;DHT22;11385;50.822;4.324;2022-11-15T12:22:18;13.60;99.90
22436;DHT22;11385;50.822;4.324;2022-11-15T12:24:51;13.60;99.90
22436;DHT22;11385;50.822;4.324;2022-11-15T12:27:31;13.60;99.90
22436;DHT22;11385;50.822;4.324;2022-11-15T12:29:54;13.50;99.90
22436;DHT22;11385;50.822;4.324;2022-11-15T12:32:33;13.60;99.90
22436;DHT22;11385;50.822;4.324;2022-11-15T12:35:02;13.70;99.90
22436;DHT22;11385;50.822;4.324;2022-11-15T12:37:46;13.70;99.90
22436;DHT22;11385;50.822;4.324;2022-11-15T12:40:24;13.90;99.90
22436;DHT22;11385;50.822;4.324;2022-11-15T12:45:45;14.00;99.90
22436;DHT22;11385;50.822;4.324;2022-11-15T12:48:50;13.90;99.90
22436;DHT22;11385;50.822;4.324;2022-11-15T12:51:20;14.00;99.90
22436;DHT22;11385;50.822;4.324;2022-11-15T12:53:47;13.90;99.90
22436;DHT22;11385;50.822;4.324;2022-11-15T12:56:19;13.80;99.90
22436;DHT22;11385;50.822;4.324;2022-11-15T12:58:52;14.00;99.90
22436;DHT22;11385;50.822;4.324;2022-11-15T13:01:55;14.00;99.90
22436;DHT22;11385;50.822;4.324;2022-11-15T13:04:25;14.00;99.90
22436;DHT22;11385;50.822;4.324;2022-11-15T13:06:59;14.00;99.90
22436;DHT22;11385;50.822;4.324;2022-11-15T13:09:52;14.10;99.90
22436;DHT22;11385;50.822;4.324;2022-11-15T13:15:31;13.90;99.90
22436;DHT22;11385;50.822;4.324;2022-11-15T13:17:58;13.90;99.90
22436;DHT22;11385;50.822;4.324;2022-11-15T13:20:29;14.10;99.90
22436;DHT22;11385;50.822;4.324;2022-11-15T13:23:07;13.90;99.90
22436;DHT22;11385;50.822;4.324;2022-11-15T13:26:12;14.00;99.90
22436;DHT22;11385;50.822;4.324;2022-11-15T13:28:29;14.00;99.90
22436;DHT22;11385;50.822;4.324;2022-11-15T13:30:59;13.80;99.90
22436;DHT22;11385;50.822;4.324;2022-11-15T13:33:30;13.70;99.90
22436;DHT22;11385;50.822;4.324;2022-11-15T13:36:00;13.80;99.90
22436;DHT22;11385;50.822;4.324;2022-11-15T13:38:31;13.90;99.90
22436;DHT22;11385;50.822;4.324;2022-11-15T13:40:59;13.90;99.90
22436;DHT22;11385;50.822;4.324;2022-11-15T13:43:29;13.90;99.90
22436;DHT22;11385;50.822;4.324;2022-11-15T13:48:35;14.20;99.90
22436;DHT22;11385;50.822;4.324;2022-11-15T13:51:06;14.00;99.90
22436;DHT22;11385;50.822;4.324;2022-11-15T13:53:34;14.00;99.90
22436;DHT22;11385;50.822;4.324;2022-11-15T13:56:02;13.90;99.90
22436;DHT22;11385;50.822;4.324;2022-11-15T13:58:29;13.90;99.90
22436;DHT22;11385;50.822;4.324;2022-11-15T14:01:03;13.90;99.90
22436;DHT22;11385;50.822;4.324;2022-11-15T14:03:34;13.80;99.90
22436;DHT22;11385;50.822;4.324;2022-11-15T14:06:10;13.60;99.90
22436;DHT22;11385;50.822;4.324;2022-11-15T14:08:40;13.60;99.90
22436;DHT22;11385;50.822;4.324;2022-11-15T14:11:12;13.60;99.90
22436;DHT22;11385;50.822;4.324;2022-11-15T14:13:39;13.60;99.90
22436;DHT22;11385;50.822;4.324;2022-11-15T14:16:15;13.90;99.90
22436;DHT22;11385;50.822;4.324;2022-11-15T14:18:49;13.90;99.90
22436;DHT22;11385;50.822;4.324;2022-11-15T14:21:18;13.70;99.90
22436;DHT22;11385;50.822;4.324;2022-11-15T14:23:45;13.50;99.90
22436;DHT22;11385;50.822;4.324;2022-11-15T14:26:29;13.30;99.90
22436;DHT22;11385;50.822;4.324;2022-11-15T14:28:57;13.10;99.90
22436;DHT22;11385;50.822;4.324;2022-11-15T14:31:26;13.10;99.90
22436;DHT22;11385;50.822;4.324;2022-11-15T14:33:52;13.00;99.90
22436;DHT22;11385;50.822;4.324;2022-11-15T14:36:20;12.90;99.90
22436;DHT22;11385;50.822;4.324;2022-11-15T14:38:47;12.90;99.90
22436;DHT22;11385;50.822;4.324;2022-11-15T14:41:18;12.80;99.90
22436;DHT22;11385;50.822;4.324;2022-11-15T14:43:45;12.70;99.90
22436;DHT22;11385;50.822;4.324;2022-11-15T14:46:12;12.70;99.90
22436;DHT22;11385;50.822;4.324;2022-11-15T14:48:39;12.70;99.90
22436;DHT22;11385;50.822;4.324;2022-11-15T14:51:12;12.60;99.90
22436;DHT22;11385;50.822;4.324;2022-11-15T14:53:40;12.70;99.90
22436;DHT22;11385;50.822;4.324;2022-11-15T14:56:08;12.60;99.90
22436;DHT22;11385;50.822;4.324;2022-11-15T14:58:35;12.60;99.90
22436;DHT22;11385;50.822;4.324;2022-11-15T15:01:12;12.60;99.90
22436;DHT22;11385;50.822;4.324;2022-11-15T15:03:39;12.50;99.90
22436;DHT22;11385;50.822;4.324;2022-11-15T15:06:06;12.50;99.90
22436;DHT22;11385;50.822;4.324;2022-11-15T15:08:34;12.50;99.90
22436;DHT22;11385;50.822;4.324;2022-11-15T15:11:00;12.50;99.90
22436;DHT22;11385;50.822;4.324;2022-11-15T15:13:27;12.60;99.90
22436;DHT22;11385;50.822;4.324;2022-11-15T15:15:56;12.50;99.90
22436;DHT22;11385;50.822;4.324;2022-11-15T15:18:22;12.60;99.90
22436;DHT22;11385;50.822;4.324;2022-11-15T15:20:54;12.60;99.90
22436;DHT22;11385;50.822;4.324;2022-11-15T15:23:20;12.40;99.90
22436;DHT22;11385;50.822;4.324;2022-11-15T15:25:49;12.40;99.90
22436;DHT22;11385;50.822;4.324;2022-11-15T15:28:15;12.30;99.90
22436;DHT22;11385;50.822;4.324;2022-11-15T15:30:42;12.30;99.90
22436;DHT22;11385;50.822;4.324;2022-11-15T15:33:09;12.30;99.90
22436;DHT22;11385;50.822;4.324;2022-11-15T15:35:36;12.30;99.90
22436;DHT22;11385;50.822;4.324;2022-11-15T15:38:03;12.40;99.90
22436;DHT22;11385;50.822;4.324;2022-11-15T15:40:32;12.40;99.90
22436;DHT22;11385;50.822;4.324;2022-11-15T15:42:59;12.40;99.90
22436;DHT22;11385;50.822;4.324;2022-11-15T15:45:26;12.40;99.90
22436;DHT22;11385;50.822;4.324;2022-11-15T15:47:55;12.40;99.90
22436;DHT22;11385;50.822;4.324;2022-11-15T15:50:31;12.40;99.90
22436;DHT22;11385;50.822;4.324;2022-11-15T15:52:59;12.40;99.90
22436;DHT22;11385;50.822;4.324;2022-11-15T15:55:27;12.40;99.90
22436;DHT22;11385;50.822;4.324;2022-11-15T15:57:54;12.40;99.90
22436;DHT22;11385;50.822;4.324;2022-11-15T16:00:23;12.50;99.90
22436;DHT22;11385;50.822;4.324;2022-11-15T16:02:51;12.40;99.90
22436;DHT22;11385;50.822;4.324;2022-11-15T16:05:18;12.40;99.90
22436;DHT22;11385;50.822;4.324;2022-11-15T16:07:45;12.40;99.90
22436;DHT22;11385;50.822;4.324;2022-11-15T16:10:23;12.40;99.90
22436;DHT22;11385;50.822;4.324;2022-11-15T16:12:52;12.30;99.90
22436;DHT22;11385;50.822;4.324;2022-11-15T16:15:20;12.30;99.90
22436;DHT22;11385;50.822;4.324;2022-11-15T16:17:52;12.40;99.90